Time;durP1;ratioP1;P1;durP2;ratioP2;P2;SDS_P1;SDS_P2;PMS_P1;PMS_P2;Temp;Humidity;BMP_temperature;BMP_pressure;BME280_temperature;BME280_humidity;BME280_pressure;Samples;Min_cycle;Max_cycle;Signal;HPM_P1;HPM_P2
2023/12/10 00:02:01;;;;;;;28.58;4.60;;;8.50;99.90;;;;;;5073758;28;20408;-89
2023/12/10 00:04:27;;;;;;;22.87;4.00;;;8.60;99.90;;;;;;5059188;28;20392;-88
2023/12/10 00:06:52;;;;;;;29.20;4.85;;;8.50;99.90;;;;;;5073206;28;20405;-88
2023/12/10 00:09:18;;;;;;;29.45;4.72;;;8.50;99.90;;;;;;5092038;28;20458;-89
2023/12/10 00:11:44;;;;;;;30.23;5.20;;;8.50;99.90;;;;;;5073977;28;20420;-88
2023/12/10 00:14:09;;;;;;;34.30;5.03;;;8.50;99.90;;;;;;5074344;28;20426;-89
2023/12/10 00:16:35;;;;;;;25.92;4.50;;;8.80;99.90;;;;;;5074985;28;20424;-87
2023/12/10 00:19:00;;;;;;;24.20;4.03;;;8.60;99.90;;;;;;5072450;28;20930;-87
2023/12/10 00:21:26;;;;;;;28.58;5.07;;;8.60;99.90;;;;;;5074853;28;20476;-88
2023/12/10 00:23:51;;;;;;;22.90;3.63;;;8.60;99.90;;;;;;5089722;28;20446;-88
2023/12/10 00:26:18;;;;;;;27.83;4.40;;;8.60;99.90;;;;;;5092045;28;20411;-90
2023/12/10 00:28:43;;;;;;;24.80;4.23;;;8.60;99.90;;;;;;5073835;28;20400;-88
2023/12/10 00:31:09;;;;;;;24.97;4.13;;;8.60;99.90;;;;;;5090549;28;20457;-86
2023/12/10 00:33:35;;;;;;;26.50;4.30;;;8.50;99.90;;;;;;5073225;28;20404;-87
2023/12/10 00:36:00;;;;;;;21.67;3.65;;;8.80;99.90;;;;;;5090246;28;20418;-87
2023/12/10 00:38:26;;;;;;;24.17;3.63;;;8.60;99.90;;;;;;5091489;28;20400;-85
2023/12/10 00:40:52;;;;;;;20.27;3.20;;;9.00;99.90;;;;;;5072777;28;20936;-86
2023/12/10 00:43:17;;;;;;;20.98;2.88;;;8.70;99.90;;;;;;5091968;28;20415;-89
2023/12/10 00:45:44;;;;;;;20.43;2.80;;;8.60;99.90;;;;;;5089393;28;20940;-88
2023/12/10 00:48:12;;;;;;;23.02;3.53;;;8.70;99.90;;;;;;5074812;28;20401;-88
2023/12/10 00:50:38;;;;;;;23.00;3.50;;;8.70;99.90;;;;;;5053397;28;20533;-88
2023/12/10 00:53:04;;;;;;;20.85;3.17;;;8.90;99.90;;;;;;5085247;28;20503;-88
2023/12/10 00:55:29;;;;;;;24.38;4.20;;;8.70;99.90;;;;;;5074493;28;20412;-89
2023/12/10 00:57:55;;;;;;;24.00;3.40;;;8.60;99.90;;;;;;5072189;28;20400;-89
2023/12/10 01:00:21;;;;;;;30.05;4.82;;;8.70;99.90;;;;;;5073920;28;20483;-87
2023/12/10 01:02:48;;;;;;;28.17;3.95;;;8.50;99.90;;;;;;5072270;28;20416;-91
2023/12/10 01:05:14;;;;;;;27.17;4.18;;;8.60;99.90;;;;;;5074147;28;20923;-91
2023/12/10 01:07:40;;;;;;;23.65;3.20;;;8.40;99.90;;;;;;5073400;28;20404;-88
2023/12/10 01:10:05;;;;;;;32.93;4.30;;;8.50;99.90;;;;;;5074407;28;20432;-90
2023/12/10 01:12:37;;;;;;;29.40;3.72;;;8.30;99.90;;;;;;5074482;28;20423;-92
2023/12/10 01:15:06;;;;;;;31.75;4.75;;;8.20;99.90;;;;;;5073059;28;20411;-91
2023/12/10 01:17:32;;;;;;;30.00;4.32;;;8.20;99.90;;;;;;5074454;28;20416;-90
2023/12/10 01:20:04;;;;;;;30.90;3.63;;;8.20;99.90;;;;;;5088403;28;20902;-91
2023/12/10 01:22:30;;;;;;;28.73;4.00;;;8.10;99.90;;;;;;5058268;28;20415;-90
2023/12/10 01:24:56;;;;;;;37.88;4.68;;;8.40;99.90;;;;;;5072853;28;20392;-90
2023/12/10 01:27:22;;;;;;;31.95;4.45;;;8.20;99.90;;;;;;5074422;28;20424;-90
2023/12/10 01:29:48;;;;;;;39.20;5.20;;;7.80;99.90;;;;;;5074000;28;20435;-89
2023/12/10 01:32:13;;;;;;;31.63;3.92;;;8.00;99.90;;;;;;5072237;28;20415;-91
2023/12/10 01:34:41;;;;;;;35.33;5.13;;;7.70;99.90;;;;;;5074735;28;20444;-89
2023/12/10 01:37:07;;;;;;;31.13;5.20;;;8.00;99.90;;;;;;5072065;28;20431;-92
2023/12/10 01:39:33;;;;;;;31.83;3.70;;;7.90;99.90;;;;;;5074433;28;20902;-89
2023/12/10 01:42:00;;;;;;;39.83;4.87;;;8.10;99.90;;;;;;5072327;28;20404;-91
2023/12/10 01:44:26;;;;;;;36.33;5.15;;;8.20;99.90;;;;;;5074349;28;20443;-91
2023/12/10 01:46:53;;;;;;;32.10;4.53;;;8.20;99.90;;;;;;5073774;28;20404;-89
2023/12/10 01:49:19;;;;;;;39.90;4.63;;;8.00;99.90;;;;;;5072747;28;20841;-90
2023/12/10 01:51:46;;;;;;;35.60;4.50;;;7.90;99.90;;;;;;5074623;28;20409;-90
2023/12/10 01:54:21;;;;;;;38.42;4.90;;;7.90;99.90;;;;;;5071302;28;20907;-92
2023/12/10 01:56:49;;;;;;;30.95;4.70;;;7.90;99.90;;;;;;5074825;28;20404;-91
2023/12/10 01:59:18;;;;;;;34.50;4.00;;;7.70;99.90;;;;;;5071850;28;20432;-91
2023/12/10 02:01:45;;;;;;;38.35;5.68;;;7.80;99.90;;;;;;5091048;28;20457;-89
2023/12/10 02:04:11;;;;;;;35.90;4.80;;;8.20;99.90;;;;;;5073665;28;21038;-92
2023/12/10 02:06:37;;;;;;;36.40;4.70;;;7.80;99.90;;;;;;5073352;28;20405;-89
2023/12/10 02:09:09;;;;;;;35.77;5.23;;;8.10;99.90;;;;;;5090771;28;20894;-90
2023/12/10 02:11:36;;;;;;;35.50;4.70;;;7.80;99.90;;;;;;5071627;28;20931;-90
2023/12/10 02:14:03;;;;;;;34.28;4.95;;;8.00;99.90;;;;;;5090816;28;20416;-93
2023/12/10 02:16:29;;;;;;;41.22;5.30;;;7.70;99.90;;;;;;5088726;28;20806;-89
2023/12/10 02:18:54;;;;;;;35.53;4.35;;;7.80;99.90;;;;;;5073527;28;20400;-91
2023/12/10 02:21:20;;;;;;;40.90;5.47;;;7.80;99.90;;;;;;5071849;28;20469;-92
2023/12/10 02:23:52;;;;;;;44.83;5.85;;;7.80;99.90;;;;;;5073294;28;20965;-90
2023/12/10 02:26:18;;;;;;;33.30;5.18;;;7.90;99.90;;;;;;5073457;28;20417;-93
2023/12/10 02:28:44;;;;;;;34.30;5.10;;;8.00;99.90;;;;;;5089253;28;20744;-90
2023/12/10 02:31:09;;;;;;;36.17;4.60;;;7.80;99.90;;;;;;5075157;28;20400;-90
2023/12/10 02:33:36;;;;;;;31.67;4.57;;;7.70;99.90;;;;;;5075843;28;20406;-89
2023/12/10 02:36:02;;;;;;;31.90;4.20;;;8.10;99.90;;;;;;5077854;28;20408;-90
2023/12/10 02:38:27;;;;;;;35.47;4.30;;;7.80;99.90;;;;;;5075695;28;20486;-91
2023/12/10 02:40:53;;;;;;;34.80;4.13;;;7.80;99.90;;;;;;5076692;28;20436;-90
2023/12/10 02:43:19;;;;;;;33.10;4.28;;;7.80;99.90;;;;;;5077300;28;20479;-91
2023/12/10 02:45:47;;;;;;;34.30;4.03;;;7.80;99.90;;;;;;5076167;28;20905;-89
2023/12/10 02:48:12;;;;;;;34.30;4.10;;;7.60;99.90;;;;;;5077657;28;20412;-92
2023/12/10 02:50:38;;;;;;;38.15;4.38;;;8.10;99.90;;;;;;5075236;28;20438;-90
2023/12/10 02:53:04;;;;;;;47.00;4.93;;;7.90;99.90;;;;;;5077720;28;20910;-90
2023/12/10 02:55:29;;;;;;;33.20;4.00;;;7.90;99.90;;;;;;5075354;28;20408;-91
2023/12/10 02:57:55;;;;;;;34.00;4.70;;;7.80;99.90;;;;;;5076871;28;20408;-89
2023/12/10 03:00:21;;;;;;;41.20;5.43;;;7.80;99.90;;;;;;5076017;28;20473;-89
2023/12/10 03:02:46;;;;;;;38.40;4.80;;;7.80;99.90;;;;;;5076589;28;20503;-90
2023/12/10 03:05:12;;;;;;;34.72;4.65;;;8.00;99.90;;;;;;5076802;28;20457;-88
2023/12/10 03:07:38;;;;;;;31.93;4.40;;;8.20;99.90;;;;;;5074983;28;20465;-90
2023/12/10 03:10:04;;;;;;;29.77;4.13;;;8.10;99.90;;;;;;5077107;28;20436;-90
2023/12/10 03:12:29;;;;;;;35.88;4.20;;;7.80;99.90;;;;;;5074966;28;20405;-88
2023/12/10 03:14:55;;;;;;;28.10;3.65;;;7.80;99.90;;;;;;5076890;28;20423;-90
2023/12/10 03:17:20;;;;;;;31.07;4.20;;;7.90;99.90;;;;;;5074806;28;20482;-89
2023/12/10 03:19:46;;;;;;;29.00;3.53;;;7.90;99.90;;;;;;5076801;28;20400;-90
2023/12/10 03:22:12;;;;;;;23.85;3.17;;;8.00;99.90;;;;;;5076047;28;20974;-90
2023/12/10 03:24:38;;;;;;;29.50;4.40;;;7.90;99.90;;;;;;5075366;28;20850;-92
2023/12/10 03:27:04;;;;;;;21.88;2.67;;;7.90;99.90;;;;;;5076458;28;20487;-90
2023/12/10 03:29:30;;;;;;;28.60;3.60;;;7.90;99.90;;;;;;5074546;28;20942;-91
2023/12/10 03:31:55;;;;;;;25.73;3.40;;;8.10;99.90;;;;;;5076662;28;20396;-94
2023/12/10 03:34:21;;;;;;;18.17;2.43;;;8.00;99.90;;;;;;5073790;28;20415;-90
2023/12/10 03:36:47;;;;;;;24.23;3.50;;;8.00;99.90;;;;;;5093487;28;20493;-89
2023/12/10 03:39:13;;;;;;;23.30;3.05;;;8.20;99.90;;;;;;5091956;28;20416;-88
2023/12/10 03:41:39;;;;;;;21.70;3.63;;;7.90;99.90;;;;;;5092199;28;21082;-90
2023/12/10 03:44:05;;;;;;;26.97;2.83;;;8.10;99.90;;;;;;5076428;28;20457;-88
2023/12/10 03:46:31;;;;;;;31.08;4.20;;;7.90;99.90;;;;;;5074988;28;20461;-89
2023/12/10 03:48:57;;;;;;;26.30;3.65;;;7.90;99.90;;;;;;5076223;28;20396;-91
2023/12/10 03:51:22;;;;;;;28.13;3.70;;;8.00;99.90;;;;;;5073979;28;20408;-90
2023/12/10 03:53:48;;;;;;;21.70;3.20;;;8.00;99.90;;;;;;5093281;28;20524;-89
2023/12/10 03:56:13;;;;;;;28.50;3.88;;;8.00;99.90;;;;;;5074503;28;20887;-90
2023/12/10 03:58:39;;;;;;;27.40;3.67;;;8.10;99.90;;;;;;5093073;28;20433;-92
2023/12/10 04:01:05;;;;;;;36.72;5.15;;;8.10;99.90;;;;;;5075318;28;20401;-91
2023/12/10 04:03:31;;;;;;;35.92;4.80;;;8.10;99.90;;;;;;5092186;28;20405;-90
2023/12/10 04:05:56;;;;;;;36.67;4.95;;;8.10;99.90;;;;;;5093048;28;20461;-90
2023/12/10 04:08:22;;;;;;;37.50;4.63;;;8.00;99.90;;;;;;5073889;28;20461;-91
2023/12/10 04:10:48;;;;;;;33.13;4.60;;;8.20;99.90;;;;;;5052193;28;20470;-91
2023/12/10 04:13:15;;;;;;;34.50;5.00;;;8.20;99.90;;;;;;5050403;28;20481;-88
2023/12/10 04:15:43;;;;;;;36.05;5.70;;;8.40;99.90;;;;;;5052755;28;20411;-93
2023/12/10 04:18:10;;;;;;;31.40;5.45;;;8.50;99.90;;;;;;5051031;28;20423;-92
2023/12/10 04:20:37;;;;;;;39.88;5.72;;;8.30;99.90;;;;;;5051560;28;20465;-92
2023/12/10 04:23:02;;;;;;;40.15;5.50;;;8.50;99.90;;;;;;5052358;28;20469;-90
2023/12/10 04:25:28;;;;;;;43.33;6.00;;;8.40;99.90;;;;;;5050042;28;20411;-90
2023/12/10 04:27:54;;;;;;;47.90;6.10;;;8.30;99.90;;;;;;5052122;28;20433;-88
2023/12/10 04:30:20;;;;;;;46.35;6.20;;;8.30;99.90;;;;;;5066547;28;20436;-92
2023/12/10 04:32:46;;;;;;;46.83;7.10;;;8.30;99.90;;;;;;5052037;28;20423;-88
2023/12/10 04:35:12;;;;;;;40.28;6.20;;;8.80;99.90;;;;;;5067292;28;20415;-89
2023/12/10 04:37:38;;;;;;;38.75;5.60;;;8.60;99.90;;;;;;5051909;28;21009;-90
2023/12/10 04:40:04;;;;;;;46.60;6.43;;;8.40;99.90;;;;;;5051491;28;20422;-90
2023/12/10 04:42:30;;;;;;;34.03;5.23;;;8.40;99.90;;;;;;5050395;28;20505;-93
2023/12/10 04:44:55;;;;;;;34.83;5.33;;;8.10;99.90;;;;;;5052645;28;20400;-93
2023/12/10 04:47:21;;;;;;;37.83;4.90;;;8.40;99.90;;;;;;5050518;28;20410;-92
2023/12/10 04:49:47;;;;;;;30.27;5.00;;;8.80;99.90;;;;;;5052045;28;20439;-90
2023/12/10 04:52:12;;;;;;;34.00;4.93;;;8.70;99.90;;;;;;5049661;28;20423;-91
2023/12/10 04:54:38;;;;;;;34.53;5.30;;;9.00;99.90;;;;;;5051188;28;20411;-94
2023/12/10 04:57:04;;;;;;;28.47;4.50;;;8.30;99.90;;;;;;5050920;28;20917;-91
2023/12/10 04:59:29;;;;;;;35.85;5.50;;;8.40;99.90;;;;;;5054726;28;20403;-93
2023/12/10 05:01:55;;;;;;;34.03;4.63;;;8.50;99.90;;;;;;5052534;28;20436;-93
2023/12/10 05:04:21;;;;;;;28.77;4.63;;;8.50;99.90;;;;;;5053337;28;20384;-91
2023/12/10 05:06:46;;;;;;;42.05;4.82;;;8.40;99.90;;;;;;5051238;28;20546;-89
2023/12/10 05:09:12;;;;;;;33.45;4.60;;;8.40;99.90;;;;;;5056416;28;20429;-90
2023/12/10 05:11:38;;;;;;;37.00;5.33;;;8.40;99.90;;;;;;5054667;28;20485;-89
2023/12/10 05:14:05;;;;;;;30.23;4.03;;;8.50;99.90;;;;;;5086705;28;20417;-90
2023/12/10 05:16:31;;;;;;;28.90;3.42;;;8.50;99.90;;;;;;5071429;28;20402;-90
2023/12/10 05:18:56;;;;;;;26.83;3.83;;;8.40;99.90;;;;;;5069054;28;20410;-91
2023/12/10 05:21:22;;;;;;;23.48;2.58;;;8.40;99.90;;;;;;5088200;28;20418;-94
2023/12/10 05:23:47;;;;;;;23.80;2.73;;;8.40;99.90;;;;;;5087244;28;20897;-91
2023/12/10 05:26:13;;;;;;;12.07;1.40;;;8.40;99.90;;;;;;5070690;28;20445;-91
2023/12/10 05:28:39;;;;;;;10.40;0.90;;;8.30;99.90;;;;;;5071195;28;20478;-90
2023/12/10 05:31:05;;;;;;;11.05;1.02;;;8.30;99.90;;;;;;5086710;28;20422;-91
2023/12/10 05:33:31;;;;;;;13.47;1.40;;;8.30;99.90;;;;;;5071309;28;20510;-90
2023/12/10 05:35:58;;;;;;;12.07;1.20;;;8.20;99.90;;;;;;5068487;28;20493;-89
2023/12/10 05:38:24;;;;;;;14.50;1.20;;;8.20;99.90;;;;;;5087991;28;20449;-90
2023/12/10 05:40:49;;;;;;;13.87;1.77;;;8.20;99.90;;;;;;5068778;28;20754;-91
2023/12/10 05:43:15;;;;;;;15.68;1.38;;;8.20;99.90;;;;;;5071042;28;20834;-90
2023/12/10 05:45:41;;;;;;;13.55;1.58;;;8.30;99.90;;;;;;5070670;28;20508;-90
2023/12/10 05:48:07;;;;;;;16.67;1.63;;;8.20;99.90;;;;;;5069537;28;20485;-89
2023/12/10 05:50:32;;;;;;;17.55;1.75;;;8.20;99.90;;;;;;5071014;28;20440;-91
2023/12/10 05:52:58;;;;;;;15.67;2.53;;;8.20;99.90;;;;;;5085671;28;20417;-91
2023/12/10 05:55:23;;;;;;;13.80;1.55;;;8.20;99.90;;;;;;5070702;28;20421;-90
2023/12/10 05:57:49;;;;;;;20.05;2.45;;;8.20;99.90;;;;;;5085887;28;20418;-90
2023/12/10 06:00:15;;;;;;;15.67;2.03;;;8.30;99.90;;;;;;5071429;28;20412;-92
2023/12/10 06:02:40;;;;;;;21.63;2.45;;;8.30;99.90;;;;;;5069755;28;20414;-89
2023/12/10 06:05:06;;;;;;;20.95;2.10;;;8.30;99.90;;;;;;5070187;28;20429;-91
2023/12/10 06:07:32;;;;;;;20.88;2.58;;;8.30;99.90;;;;;;5070168;28;20761;-89
2023/12/10 06:09:58;;;;;;;23.33;3.17;;;8.30;99.90;;;;;;5068503;28;20792;-90
2023/12/10 06:12:23;;;;;;;20.93;2.30;;;8.30;99.90;;;;;;5070524;28;20418;-91
2023/12/10 06:14:49;;;;;;;20.70;2.67;;;8.30;99.90;;;;;;5085765;28;20425;-89
2023/12/10 06:17:14;;;;;;;22.63;2.43;;;8.30;99.90;;;;;;5087786;28;20897;-92
2023/12/10 06:19:40;;;;;;;25.30;2.73;;;8.30;99.90;;;;;;5085453;28;20406;-91
2023/12/10 06:22:06;;;;;;;22.52;2.78;;;8.50;99.90;;;;;;5070227;28;20774;-91
2023/12/10 06:24:31;;;;;;;22.95;2.63;;;8.40;99.90;;;;;;5069893;28;20493;-89
2023/12/10 06:26:57;;;;;;;21.27;2.60;;;8.40;99.90;;;;;;5069558;28;20413;-90
2023/12/10 06:29:23;;;;;;;19.53;2.43;;;8.40;99.90;;;;;;5070674;28;20429;-92
2023/12/10 06:31:48;;;;;;;20.25;2.55;;;8.40;99.90;;;;;;5051844;28;20532;-91
2023/12/10 06:34:14;;;;;;;17.63;2.25;;;8.60;99.90;;;;;;5087995;28;20401;-90
2023/12/10 06:36:40;;;;;;;15.43;1.75;;;8.40;99.90;;;;;;5085380;28;20405;-89
2023/12/10 06:39:06;;;;;;;12.40;1.53;;;8.40;99.90;;;;;;5053589;28;20520;-90
2023/12/10 06:41:32;;;;;;;12.88;1.30;;;8.60;99.90;;;;;;5066301;28;20499;-90
2023/12/10 06:43:57;;;;;;;12.60;1.23;;;8.80;99.90;;;;;;5069136;28;20406;-90
2023/12/10 06:46:23;;;;;;;13.30;0.90;;;8.50;99.90;;;;;;5070003;28;20401;-91
2023/12/10 06:48:49;;;;;;;12.82;1.10;;;8.50;99.90;;;;;;5068952;28;20972;-88
2023/12/10 06:51:14;;;;;;;8.50;1.00;;;8.70;99.90;;;;;;5086401;28;20394;-89
2023/12/10 06:53:40;;;;;;;11.13;0.90;;;8.50;99.90;;;;;;5067633;28;20402;-86
2023/12/10 06:56:09;;;;;;;16.55;1.25;;;8.50;99.90;;;;;;5086604;28;20406;-88
2023/12/10 06:58:35;;;;;;;9.98;0.80;;;8.50;99.90;;;;;;5068411;28;20463;-92
2023/12/10 07:01:02;;;;;;;13.13;0.93;;;8.50;99.90;;;;;;5069650;28;20413;-87
2023/12/10 07:03:28;;;;;;;12.70;0.88;;;8.50;99.90;;;;;;5068169;28;20420;-94
2023/12/10 07:05:53;;;;;;;12.23;0.95;;;8.80;99.90;;;;;;5067188;28;20406;-93
2023/12/10 07:08:19;;;;;;;12.15;1.10;;;8.50;99.90;;;;;;5076720;28;20750;-90
2023/12/10 07:10:45;;;;;;;14.00;1.40;;;8.80;99.90;;;;;;5066502;28;20469;-90
2023/12/10 07:13:10;;;;;;;18.80;1.40;;;8.50;99.90;;;;;;5085952;28;20857;-90
2023/12/10 07:15:36;;;;;;;17.55;1.30;;;8.70;99.90;;;;;;5067186;28;20413;-89
2023/12/10 07:18:02;;;;;;;17.63;1.17;;;8.50;99.90;;;;;;5072318;28;20402;-91
2023/12/10 07:20:27;;;;;;;15.57;1.23;;;8.50;99.90;;;;;;5072163;28;20993;-92
2023/12/10 07:22:53;;;;;;;16.55;1.60;;;8.40;99.90;;;;;;5071097;28;20421;-90
2023/12/10 07:25:19;;;;;;;13.00;1.38;;;8.50;99.90;;;;;;5072703;28;20414;-88
2023/12/10 07:27:45;;;;;;;14.33;1.50;;;8.50;99.90;;;;;;5088362;28;20414;-88
2023/12/10 07:30:11;;;;;;;20.65;1.80;;;8.70;99.90;;;;;;5072284;28;20441;-91
2023/12/10 07:32:36;;;;;;;15.30;1.80;;;8.50;99.90;;;;;;5070382;28;20500;-89
2023/12/10 07:35:03;;;;;;;19.40;1.83;;;8.50;99.90;;;;;;5072252;28;20446;-89
2023/12/10 07:37:29;;;;;;;19.90;2.00;;;8.50;99.90;;;;;;5069612;28;20505;-88
2023/12/10 07:39:54;;;;;;;18.57;2.30;;;8.70;99.90;;;;;;5071418;28;20513;-88
2023/12/10 07:42:20;;;;;;;15.13;1.70;;;8.80;99.90;;;;;;5095718;28;20407;-93
2023/12/10 07:44:46;;;;;;;11.48;0.90;;;8.60;99.90;;;;;;5084125;28;20438;-92
2023/12/10 07:47:11;;;;;;;10.00;0.52;;;8.60;99.90;;;;;;5086631;28;20490;-91
2023/12/10 07:49:37;;;;;;;11.20;0.80;;;8.80;99.90;;;;;;5084257;28;20967;-92
2023/12/10 07:52:03;;;;;;;10.47;0.90;;;8.40;99.90;;;;;;5053049;28;20767;-91
2023/12/10 07:54:28;;;;;;;12.07;0.80;;;8.60;99.90;;;;;;5050516;28;20412;-90
2023/12/10 07:56:54;;;;;;;14.30;1.30;;;8.30;99.90;;;;;;5067317;28;20709;-89
2023/12/10 07:59:20;;;;;;;20.13;2.28;;;8.60;99.90;;;;;;5070595;28;20444;-89
2023/12/10 08:01:46;;;;;;;16.90;2.57;;;8.60;99.90;;;;;;5070831;28;20414;-93
2023/12/10 08:04:12;;;;;;;26.63;3.17;;;8.60;99.90;;;;;;5072879;28;20417;-92
2023/12/10 08:06:38;;;;;;;23.23;3.07;;;8.60;99.90;;;;;;5071060;28;20990;-90
2023/12/10 08:09:06;;;;;;;30.13;3.38;;;8.50;99.90;;;;;;5096369;28;20537;-92
2023/12/10 08:11:32;;;;;;;28.02;3.83;;;8.70;99.90;;;;;;5073232;28;20860;-87
2023/12/10 08:13:58;;;;;;;28.55;3.15;;;8.80;99.90;;;;;;5092481;28;20423;-89
2023/12/10 08:16:24;;;;;;;27.10;2.92;;;8.60;99.90;;;;;;5074144;28;20879;-88
2023/12/10 08:18:50;;;;;;;24.57;2.70;;;8.70;99.90;;;;;;5092383;28;20404;-90
2023/12/10 08:21:16;;;;;;;24.95;3.03;;;8.40;99.90;;;;;;5074916;28;20408;-91
2023/12/10 08:23:42;;;;;;;26.20;2.40;;;8.60;99.90;;;;;;5073735;28;20419;-90
2023/12/10 08:26:07;;;;;;;27.35;3.17;;;8.50;99.90;;;;;;5075724;28;20397;-92
2023/12/10 08:28:33;;;;;;;24.63;3.20;;;8.50;99.90;;;;;;5072841;28;20424;-92
2023/12/10 08:30:59;;;;;;;30.88;3.40;;;8.50;99.90;;;;;;5092115;28;20447;-92
2023/12/10 08:33:25;;;;;;;30.27;3.37;;;8.40;99.90;;;;;;5091094;28;20396;-90
2023/12/10 08:35:51;;;;;;;29.63;4.00;;;8.60;99.90;;;;;;5074931;28;20981;-90
2023/12/10 08:38:16;;;;;;;28.83;3.65;;;8.70;99.90;;;;;;5091098;28;20397;-88
2023/12/10 08:40:42;;;;;;;27.75;3.25;;;8.50;99.90;;;;;;5090913;28;20751;-92
2023/12/10 08:43:08;;;;;;;25.37;2.87;;;8.50;99.90;;;;;;5074432;28;20736;-92
2023/12/10 08:45:33;;;;;;;25.90;2.97;;;8.50;99.90;;;;;;5072909;28;20963;-89
2023/12/10 08:47:59;;;;;;;31.83;3.65;;;8.50;99.90;;;;;;5091695;28;20563;-91
2023/12/10 08:50:25;;;;;;;28.67;3.10;;;8.50;99.90;;;;;;5088446;28;20431;-90
2023/12/10 08:52:50;;;;;;;23.07;3.13;;;8.50;99.90;;;;;;5074525;28;20435;-89
2023/12/10 08:55:16;;;;;;;24.90;3.20;;;8.50;99.90;;;;;;5073269;28;20451;-90
2023/12/10 08:57:41;;;;;;;27.48;2.97;;;8.70;99.90;;;;;;5073271;28;20409;-88
2023/12/10 09:00:08;;;;;;;27.33;2.60;;;8.60;99.90;;;;;;5118524;27;20404;-92
2023/12/10 09:02:36;;;;;;;21.77;3.03;;;8.50;99.90;;;;;;5089631;28;21218;-92
2023/12/10 09:05:02;;;;;;;24.88;2.28;;;8.50;99.90;;;;;;5073924;28;20903;-86
2023/12/10 09:07:29;;;;;;;21.48;2.28;;;8.50;99.90;;;;;;5088855;28;20392;-88
2023/12/10 09:09:59;;;;;;;19.77;2.42;;;8.50;99.90;;;;;;5091093;28;20423;-91
2023/12/10 09:12:27;;;;;;;21.88;2.50;;;8.70;99.90;;;;;;5072376;28;20401;-90
2023/12/10 09:14:53;;;;;;;19.00;2.17;;;8.50;99.90;;;;;;5124991;27;20412;-91
2023/12/10 09:17:22;;;;;;;16.67;1.85;;;8.70;99.90;;;;;;5124590;27;20465;-91
2023/12/10 09:19:48;;;;;;;13.15;1.55;;;8.50;99.90;;;;;;5073012;28;20396;-86
2023/12/10 09:22:15;;;;;;;13.70;1.00;;;8.60;99.90;;;;;;5073705;28;20680;-87
2023/12/10 09:24:40;;;;;;;16.40;1.52;;;8.50;99.90;;;;;;5071840;28;20397;-88
2023/12/10 09:27:07;;;;;;;18.40;1.83;;;8.50;99.90;;;;;;5073356;28;20400;-90
2023/12/10 09:29:38;;;;;;;18.85;2.28;;;8.70;99.90;;;;;;5088781;28;20451;-87
2023/12/10 09:32:05;;;;;;;18.20;1.63;;;8.60;99.90;;;;;;5074487;28;20539;-91
2023/12/10 09:34:32;;;;;;;20.02;2.30;;;8.60;99.90;;;;;;5073399;28;20447;-86
2023/12/10 09:36:58;;;;;;;18.23;2.63;;;8.60;99.90;;;;;;5089738;28;20397;-91
2023/12/10 09:39:24;;;;;;;21.43;2.57;;;8.70;99.90;;;;;;5073564;28;20460;-86
2023/12/10 09:41:50;;;;;;;19.85;2.53;;;8.70;99.90;;;;;;5071695;28;20409;-89
2023/12/10 09:44:15;;;;;;;20.27;2.63;;;8.90;99.90;;;;;;5090576;28;20397;-89
2023/12/10 09:46:41;;;;;;;20.37;3.00;;;8.80;99.90;;;;;;5088450;28;20457;-94
2023/12/10 09:49:07;;;;;;;19.92;2.72;;;8.90;99.90;;;;;;5073615;28;20411;-87
2023/12/10 09:51:33;;;;;;;23.85;3.10;;;8.80;99.90;;;;;;5070960;28;20747;-88
2023/12/10 09:53:58;;;;;;;20.13;2.30;;;8.80;99.90;;;;;;5072755;28;20404;-88
2023/12/10 09:56:24;;;;;;;20.50;2.67;;;8.80;99.90;;;;;;5072986;28;20443;-93
2023/12/10 09:58:50;;;;;;;24.83;3.10;;;9.00;99.90;;;;;;5071982;28;20409;-88
2023/12/10 10:01:15;;;;;;;21.45;2.60;;;9.10;99.90;;;;;;5090180;28;20408;-85
2023/12/10 10:03:41;;;;;;;26.03;3.07;;;9.00;99.90;;;;;;5071105;28;20487;-92
2023/12/10 10:06:08;;;;;;;31.30;4.15;;;8.90;99.90;;;;;;5073155;28;20806;-87
2023/12/10 10:08:34;;;;;;;33.65;4.90;;;8.80;99.90;;;;;;5070151;28;20400;-93
2023/12/10 10:11:01;;;;;;;38.45;5.15;;;8.80;99.90;;;;;;5073356;28;20424;-87
2023/12/10 10:13:27;;;;;;;41.80;5.63;;;8.60;99.90;;;;;;5071985;28;20437;-91
2023/12/10 10:15:53;;;;;;;31.27;4.10;;;8.70;99.90;;;;;;5089098;28;20408;-89
2023/12/10 10:18:20;;;;;;;35.50;4.63;;;9.10;99.90;;;;;;5073615;28;20400;-92
2023/12/10 10:20:46;;;;;;;39.80;5.32;;;9.00;99.90;;;;;;5071160;28;20465;-91
2023/12/10 10:23:14;;;;;;;34.13;4.72;;;8.60;99.90;;;;;;5073823;28;20502;-91
2023/12/10 10:25:40;;;;;;;43.67;5.45;;;8.90;99.90;;;;;;5071204;28;20486;-91
2023/12/10 10:28:09;;;;;;;39.10;5.67;;;8.60;99.90;;;;;;5106956;28;20446;-89
2023/12/10 10:30:35;;;;;;;42.42;5.40;;;8.60;99.90;;;;;;5088154;28;20436;-87
2023/12/10 10:33:01;;;;;;;43.33;6.30;;;8.60;99.90;;;;;;5089123;28;20423;-87
2023/12/10 10:35:27;;;;;;;41.20;5.23;;;8.60;99.90;;;;;;5072528;28;20441;-90
2023/12/10 10:37:54;;;;;;;40.45;5.05;;;8.90;99.90;;;;;;5087599;28;20407;-87
2023/12/10 10:40:22;;;;;;;37.35;4.93;;;8.90;99.90;;;;;;5089170;28;20962;-93
2023/12/10 10:42:49;;;;;;;37.53;5.72;;;8.70;99.90;;;;;;5070007;28;20392;-86
2023/12/10 10:45:14;;;;;;;36.87;5.73;;;8.80;99.90;;;;;;5072355;28;20414;-90
2023/12/10 10:47:40;;;;;;;35.23;5.10;;;8.90;99.90;;;;;;5071552;28;20928;-90
2023/12/10 10:50:11;;;;;;;34.58;4.80;;;8.90;99.90;;;;;;5089098;28;20875;-92
2023/12/10 10:52:37;;;;;;;29.95;4.90;;;8.90;99.90;;;;;;5074332;28;20400;-91
2023/12/10 10:55:04;;;;;;;37.92;5.47;;;9.10;99.90;;;;;;5092390;28;20404;-91
2023/12/10 10:57:30;;;;;;;41.13;5.82;;;8.90;99.90;;;;;;5076709;28;20747;-89
2023/12/10 10:59:57;;;;;;;34.03;5.63;;;8.90;99.90;;;;;;5091332;28;21010;-88
2023/12/10 11:02:23;;;;;;;34.72;4.95;;;9.40;99.90;;;;;;5092538;28;20482;-85
2023/12/10 11:04:53;;;;;;;35.90;5.78;;;9.00;99.90;;;;;;5088521;28;20499;-89
2023/12/10 11:07:21;;;;;;;38.30;5.57;;;9.00;99.90;;;;;;5058805;28;20415;-86
2023/12/10 11:10:01;;;;;;;39.90;5.32;;;9.00;99.90;;;;;;5075801;28;20522;-88
2023/12/10 11:12:48;;;;;;;36.30;5.70;;;9.00;99.90;;;;;;5090101;28;20408;-88
2023/12/10 11:15:17;;;;;;;35.17;4.82;;;9.00;99.90;;;;;;5076441;28;20935;-91
2023/12/10 11:17:59;;;;;;;39.65;5.07;;;9.00;99.90;;;;;;5091331;28;20920;-86
2023/12/10 11:20:29;;;;;;;39.57;5.83;;;9.00;99.90;;;;;;5075123;28;20423;-89
2023/12/10 11:22:55;;;;;;;38.93;6.00;;;9.10;99.90;;;;;;5075282;28;20419;-88
2023/12/10 11:25:21;;;;;;;42.30;5.60;;;9.00;99.90;;;;;;5074111;28;20396;-91
2023/12/10 11:27:47;;;;;;;35.17;4.60;;;9.00;99.90;;;;;;5075717;28;20433;-88
2023/12/10 11:30:13;;;;;;;37.70;5.03;;;9.00;99.90;;;;;;5073128;28;20787;-87
2023/12/10 11:32:38;;;;;;;38.43;5.27;;;9.00;99.90;;;;;;5075202;28;20416;-86
2023/12/10 11:35:04;;;;;;;34.92;4.80;;;9.20;99.90;;;;;;5073344;28;20499;-85
2023/12/10 11:37:30;;;;;;;34.85;5.70;;;9.10;99.90;;;;;;5074755;28;20392;-86
2023/12/10 11:39:56;;;;;;;35.40;5.43;;;9.10;99.90;;;;;;5074361;28;20438;-86
2023/12/10 11:42:22;;;;;;;37.63;5.67;;;9.30;99.90;;;;;;5089145;28;20453;-86
2023/12/10 11:44:47;;;;;;;33.30;5.50;;;9.20;99.90;;;;;;5074029;28;20911;-86
2023/12/10 11:47:13;;;;;;;38.25;5.65;;;9.30;99.90;;;;;;5089897;28;20408;-90
2023/12/10 11:49:39;;;;;;;35.08;5.93;;;9.20;99.90;;;;;;5074165;28;21185;-87
2023/12/10 11:52:05;;;;;;;44.20;5.82;;;9.10;99.90;;;;;;5086361;28;20412;-89
2023/12/10 11:54:30;;;;;;;35.40;5.53;;;9.00;99.90;;;;;;5091995;28;20442;-88
2023/12/10 11:56:57;;;;;;;37.83;6.40;;;9.00;99.90;;;;;;5072865;28;20854;-85
2023/12/10 11:59:23;;;;;;;40.47;7.03;;;9.00;99.90;;;;;;5090268;28;20480;-86
2023/12/10 12:01:50;;;;;;;35.38;5.22;;;9.10;99.90;;;;;;5074132;28;20902;-86
2023/12/10 12:04:16;;;;;;;36.53;6.05;;;9.10;99.90;;;;;;5072855;28;20504;-87
2023/12/10 12:06:45;;;;;;;34.97;4.70;;;9.10;99.90;;;;;;5090715;28;20453;-87
2023/12/10 12:09:30;;;;;;;39.55;6.47;;;9.20;99.90;;;;;;5088539;28;20393;-86
2023/12/10 12:11:56;;;;;;;35.80;5.18;;;9.30;99.90;;;;;;5090177;28;20413;-86
2023/12/10 12:14:21;;;;;;;32.78;5.28;;;9.30;99.90;;;;;;5089737;28;20388;-87
2023/12/10 12:16:47;;;;;;;34.17;4.68;;;9.60;99.90;;;;;;5089465;28;20404;-87
2023/12/10 12:19:28;;;;;;;30.17;5.17;;;9.70;99.90;;;;;;5073648;28;20488;-86
2023/12/10 12:21:57;;;;;;;33.83;5.05;;;9.40;99.90;;;;;;5071136;28;20859;-86
2023/12/10 12:24:23;;;;;;;35.23;5.67;;;9.40;99.90;;;;;;5073509;28;20404;-87
2023/12/10 12:26:50;;;;;;;29.83;4.37;;;9.50;99.90;;;;;;5089206;28;20404;-87
2023/12/10 12:29:16;;;;;;;31.58;4.43;;;9.50;99.90;;;;;;5073360;28;20404;-88
2023/12/10 12:31:41;;;;;;;28.92;4.93;;;9.50;99.90;;;;;;5073096;28;21017;-85
2023/12/10 12:34:07;;;;;;;26.95;4.03;;;9.60;99.90;;;;;;5089550;28;20405;-86
2023/12/10 12:36:32;;;;;;;27.60;5.20;;;9.50;99.90;;;;;;5090272;28;20412;-85
2023/12/10 12:38:58;;;;;;;30.70;4.40;;;9.50;99.90;;;;;;5088708;28;20453;-86
2023/12/10 12:41:24;;;;;;;30.30;4.53;;;9.70;99.90;;;;;;5072655;28;20423;-88
2023/12/10 12:43:51;;;;;;;30.33;4.53;;;9.40;99.90;;;;;;5072401;28;20901;-86